createdAt,value
2018-08-30T00:01:34.801Z,48.50
2018-08-30T00:04:03.481Z,49.17
2018-08-30T00:06:32.095Z,49.07
2018-08-30T00:09:00.696Z,54.43
2018-08-30T00:11:29.739Z,52.40
2018-08-30T00:13:58.499Z,49.23
2018-08-30T00:16:27.131Z,48.83
2018-08-30T00:18:55.827Z,44.00
2018-08-30T00:21:24.442Z,51.27
2018-08-30T00:23:53.069Z,44.60
2018-08-30T00:26:21.657Z,44.70
2018-08-30T00:28:50.721Z,44.40
2018-08-30T00:31:19.457Z,46.33
2018-08-30T00:33:48.211Z,47.03
2018-08-30T00:36:16.848Z,50.80
2018-08-30T00:38:45.468Z,45.37
2018-08-30T00:41:15.104Z,48.30
2018-08-30T00:43:43.832Z,47.20
2018-08-30T00:46:12.469Z,51.83
2018-08-30T00:48:41.068Z,51.63
2018-08-30T00:51:09.707Z,53.37
2018-08-30T00:53:38.498Z,53.43
2018-08-30T00:56:07.119Z,58.83
2018-08-30T00:58:35.737Z,53.00
2018-08-30T01:01:04.375Z,55.90
2018-08-30T01:03:33.047Z,49.37
2018-08-30T01:06:01.787Z,49.70
2018-08-30T01:08:30.445Z,52.33
2018-08-30T01:10:59.054Z,46.90
2018-08-30T01:13:27.705Z,44.43
2018-08-30T01:15:56.422Z,46.87
2018-08-30T01:18:25.127Z,48.10
2018-08-30T01:20:53.869Z,46.13
2018-08-30T01:23:22.458Z,45.27
2018-08-30T01:25:51.090Z,46.73
2018-08-30T01:28:19.774Z,49.57
2018-08-30T01:30:48.457Z,48.90
2018-08-30T01:33:17.105Z,47.93
2018-08-30T01:35:45.711Z,45.20
2018-08-30T01:38:15.069Z,51.47
2018-08-30T01:40:43.732Z,50.30
2018-08-30T01:43:12.367Z,45.57
2018-08-30T01:45:41.165Z,47.13
2018-08-30T01:48:10.072Z,47.00
2018-08-30T01:50:40.468Z,51.87
2018-08-30T01:53:10.532Z,46.00
2018-08-30T01:55:40.013Z,49.03
2018-08-30T01:58:08.765Z,44.47
2018-08-30T02:00:37.378Z,48.73
2018-08-30T02:03:06.470Z,46.60
2018-08-30T02:05:35.321Z,45.57
2018-08-30T02:08:04.010Z,47.10
2018-08-30T02:10:32.624Z,47.13
2018-08-30T02:13:01.333Z,43.80
2018-08-30T02:15:30.036Z,44.97
2018-08-30T02:17:59.162Z,42.03
2018-08-30T02:20:27.843Z,47.57
2018-08-30T02:22:56.545Z,44.50
2018-08-30T02:25:25.212Z,43.70
2018-08-30T02:27:53.832Z,43.93
2018-08-30T02:30:22.486Z,39.03
2018-08-30T02:32:52.530Z,43.97
2018-08-30T02:35:22.088Z,39.23
2018-08-30T02:37:52.007Z,42.83
2018-08-30T02:40:20.650Z,43.27
2018-08-30T02:42:49.385Z,39.40
2018-08-30T02:45:17.999Z,44.23
2018-08-30T02:47:46.666Z,42.20
2018-08-30T02:50:16.493Z,37.63
2018-08-30T02:52:45.553Z,41.33
2018-08-30T02:55:14.555Z,44.63
2018-08-30T02:57:43.164Z,41.90
2018-08-30T03:00:11.787Z,42.53
2018-08-30T03:02:41.809Z,44.47
2018-08-30T03:05:11.199Z,44.50
2018-08-30T03:07:39.885Z,42.23
2018-08-30T03:10:08.515Z,43.60
2018-08-30T03:12:37.726Z,44.70
2018-08-30T03:15:15.872Z,44.60
2018-08-30T03:17:44.687Z,38.63
2018-08-30T03:20:15.519Z,45.40
2018-08-30T03:22:44.107Z,44.97
2018-08-30T03:25:12.799Z,46.00
2018-08-30T03:27:41.614Z,42.20
2018-08-30T03:30:10.407Z,43.67
2018-08-30T03:32:39.256Z,42.37
2018-08-30T03:35:08.061Z,44.17
2018-08-30T03:37:37.187Z,42.27
2018-08-30T03:40:05.956Z,46.87
2018-08-30T03:42:34.642Z,49.97
2018-08-30T03:45:03.508Z,44.13
2018-08-30T03:47:32.804Z,45.83
2018-08-30T03:50:01.776Z,43.63
2018-08-30T03:52:30.561Z,47.60
2018-08-30T03:54:59.391Z,45.00
2018-08-30T03:57:27.999Z,47.90
2018-08-30T03:59:56.613Z,44.70
2018-08-30T04:02:25.206Z,44.10
2018-08-30T04:04:53.864Z,42.80
2018-08-30T04:07:22.454Z,47.07
2018-08-30T04:09:51.120Z,41.00
2018-08-30T04:12:19.746Z,45.20
2018-08-30T04:14:48.423Z,40.90
2018-08-30T04:17:17.072Z,43.63
2018-08-30T04:19:45.649Z,45.03
2018-08-30T04:22:14.328Z,44.00
2018-08-30T04:24:42.954Z,42.37
2018-08-30T04:27:11.585Z,41.10
2018-08-30T04:29:40.234Z,38.20
2018-08-30T04:32:08.846Z,41.10
2018-08-30T04:34:37.445Z,38.10
2018-08-30T04:37:06.194Z,39.60
2018-08-30T04:39:34.987Z,36.67
2018-08-30T04:42:03.643Z,37.47
2018-08-30T04:44:32.219Z,41.07
2018-08-30T04:47:00.899Z,38.67
2018-08-30T04:49:29.547Z,36.97
2018-08-30T04:51:58.182Z,35.80
2018-08-30T04:54:26.777Z,40.50
2018-08-30T04:56:55.406Z,37.73
2018-08-30T04:59:24.009Z,42.03
2018-08-30T05:01:52.838Z,40.67
2018-08-30T05:04:21.475Z,41.00
2018-08-30T05:06:50.089Z,35.23
2018-08-30T05:09:19.923Z,35.17
2018-08-30T05:11:48.635Z,36.83
2018-08-30T05:14:17.259Z,34.23
2018-08-30T05:16:45.859Z,35.63
2018-08-30T05:19:14.550Z,33.90
2018-08-30T05:21:43.147Z,31.17
2018-08-30T05:24:11.752Z,33.63
2018-08-30T05:26:40.392Z,29.07
2018-08-30T05:29:09.024Z,29.00
2018-08-30T05:31:38.380Z,26.17
2018-08-30T05:34:07.043Z,30.33
2018-08-30T05:36:35.788Z,24.93
2018-08-30T05:39:05.575Z,26.53
2018-08-30T05:41:34.219Z,28.13
2018-08-30T05:44:02.888Z,29.23
2018-08-30T05:46:31.627Z,23.60
2018-08-30T05:49:00.241Z,27.33
2018-08-30T05:51:28.906Z,23.33
2018-08-30T05:53:57.597Z,23.33
2018-08-30T05:56:26.313Z,22.07
2018-08-30T05:58:54.924Z,25.30
2018-08-30T06:01:23.643Z,25.53
2018-08-30T06:03:52.248Z,18.23
2018-08-30T06:06:20.854Z,24.37
2018-08-30T06:08:49.535Z,22.07
2018-08-30T06:11:18.217Z,19.93
2018-08-30T06:13:46.855Z,22.60
2018-08-30T06:16:15.495Z,25.33
2018-08-30T06:18:44.136Z,20.70
2018-08-30T06:21:12.723Z,22.67
2018-08-30T06:23:41.438Z,14.23
2018-08-30T06:26:10.250Z,19.13
2018-08-30T06:28:39.006Z,22.80
2018-08-30T06:31:07.670Z,16.77
2018-08-30T06:33:36.243Z,16.50
2018-08-30T06:36:05.286Z,16.90
2018-08-30T06:38:34.027Z,17.10
2018-08-30T06:41:02.690Z,18.57
2018-08-30T06:43:31.318Z,16.13
2018-08-30T06:45:59.928Z,20.20
2018-08-30T06:48:28.586Z,19.20
2018-08-30T06:50:57.357Z,17.77
2018-08-30T06:53:26.011Z,14.77
2018-08-30T06:55:54.651Z,16.67
2018-08-30T06:58:23.321Z,20.57
2018-08-30T07:00:51.921Z,14.23
2018-08-30T07:03:21.565Z,18.53
2018-08-30T07:05:50.260Z,15.33
2018-08-30T07:08:19.003Z,15.80
2018-08-30T07:10:47.544Z,13.07
2018-08-30T07:13:16.530Z,13.10
2018-08-30T07:15:45.187Z,12.90
2018-08-30T07:18:13.768Z,14.40
2018-08-30T07:20:43.048Z,14.07
2018-08-30T07:23:11.688Z,14.63
2018-08-30T07:25:40.376Z,12.60
2018-08-30T07:28:09.054Z,13.47
2018-08-30T07:30:37.842Z,14.93
2018-08-30T07:33:06.466Z,14.57
2018-08-30T07:35:35.094Z,13.10
2018-08-30T07:38:03.715Z,10.97
2018-08-30T07:40:32.381Z,16.00
2018-08-30T07:43:01.041Z,11.70
2018-08-30T07:45:29.686Z,12.87
2018-08-30T07:47:58.455Z,13.80
2018-08-30T07:50:27.083Z,16.83
2018-08-30T07:52:56.306Z,13.07
2018-08-30T07:55:25.033Z,19.57
2018-08-30T07:57:53.634Z,10.33
2018-08-30T08:00:25.116Z,12.60
2018-08-30T08:02:54.240Z,11.30
2018-08-30T08:05:22.981Z,12.10
2018-08-30T08:07:51.658Z,9.43
2018-08-30T08:10:20.353Z,14.47
2018-08-30T08:12:49.039Z,10.27
2018-08-30T08:15:17.763Z,10.97
2018-08-30T08:17:46.404Z,10.73
2018-08-30T08:20:15.035Z,12.80
2018-08-30T08:22:43.678Z,14.10
2018-08-30T08:25:12.331Z,12.70
2018-08-30T08:27:40.950Z,11.30
2018-08-30T08:30:09.691Z,10.87
2018-08-30T08:32:38.379Z,15.77
2018-08-30T08:35:07.399Z,10.83
2018-08-30T08:37:35.991Z,14.00
2018-08-30T08:40:05.017Z,14.10
2018-08-30T08:42:33.663Z,13.87
2018-08-30T08:45:02.336Z,10.00
2018-08-30T08:47:30.937Z,12.23
2018-08-30T08:49:59.798Z,8.13
2018-08-30T08:52:28.519Z,14.07
2018-08-30T08:54:57.208Z,15.07
2018-08-30T08:57:25.889Z,14.40
2018-08-30T08:59:54.506Z,9.33
2018-08-30T09:02:23.456Z,11.40
2018-08-30T09:04:52.076Z,12.00
2018-08-30T09:07:20.859Z,10.43
2018-08-30T09:09:49.516Z,8.63
2018-08-30T09:12:18.162Z,12.60
2018-08-30T09:14:46.864Z,10.40
2018-08-30T09:17:15.787Z,8.77
2018-08-30T09:19:44.418Z,8.80
2018-08-30T09:22:13.456Z,9.47
2018-08-30T09:24:42.061Z,12.13
2018-08-30T09:27:10.725Z,11.63
2018-08-30T09:29:39.398Z,10.13
2018-08-30T09:32:08.190Z,9.27
2018-08-30T09:34:37.117Z,12.50
2018-08-30T09:37:05.779Z,13.73
2018-08-30T09:39:34.410Z,9.23
2018-08-30T09:42:03.244Z,9.83
2018-08-30T09:44:31.879Z,9.03
2018-08-30T09:47:00.478Z,11.70
2018-08-30T09:49:29.290Z,8.73
2018-08-30T09:51:57.922Z,11.30
2018-08-30T09:54:26.556Z,13.43
2018-08-30T09:56:55.282Z,10.90
2018-08-30T09:59:23.881Z,11.13
2018-08-30T10:01:56.601Z,9.57
2018-08-30T10:04:25.306Z,12.00
2018-08-30T10:06:54.035Z,11.57
2018-08-30T10:09:22.640Z,9.43
2018-08-30T10:11:51.303Z,12.23
2018-08-30T10:14:20.005Z,10.70
2018-08-30T10:16:48.713Z,10.03
2018-08-30T10:19:17.360Z,11.40
2018-08-30T10:21:46.048Z,8.87
2018-08-30T10:24:14.734Z,8.93
2018-08-30T10:26:43.361Z,10.33
2018-08-30T10:29:12.194Z,11.80
2018-08-30T10:31:41.007Z,7.20
2018-08-30T10:34:09.569Z,8.80
2018-08-30T10:36:38.224Z,8.93
2018-08-30T10:39:08.249Z,9.70
2018-08-30T10:41:37.116Z,7.87
2018-08-30T10:44:05.811Z,9.90
2018-08-30T10:46:34.607Z,6.57
2018-08-30T10:49:03.592Z,7.10
2018-08-30T10:51:32.304Z,7.23
2018-08-30T10:54:01.015Z,4.83
2018-08-30T10:56:30.166Z,10.13
2018-08-30T10:58:58.838Z,8.77
2018-08-30T11:01:27.486Z,10.93
2018-08-30T11:03:56.268Z,9.50
2018-08-30T11:06:25.161Z,7.17
2018-08-30T11:08:53.788Z,8.07
2018-08-30T11:11:22.408Z,10.03
2018-08-30T11:13:51.023Z,13.13
2018-08-30T11:16:19.663Z,12.67
2018-08-30T11:18:48.418Z,13.47
2018-08-30T11:21:17.088Z,13.00
2018-08-30T11:23:46.064Z,10.33
2018-08-30T11:26:14.700Z,9.37
2018-08-30T11:28:43.413Z,10.07
2018-08-30T11:31:12.505Z,10.43
2018-08-30T11:33:41.156Z,13.03
2018-08-30T11:36:09.825Z,11.50
2018-08-30T11:38:38.545Z,11.47
2018-08-30T11:41:07.255Z,11.67
2018-08-30T11:43:35.901Z,9.60
2018-08-30T11:46:04.492Z,9.93
2018-08-30T11:48:33.106Z,13.00
2018-08-30T11:51:01.819Z,14.70
2018-08-30T11:53:36.917Z,9.13
2018-08-30T11:56:05.696Z,15.20
2018-08-30T11:58:35.234Z,12.47
2018-08-30T12:01:04.311Z,9.77
2018-08-30T12:03:33.038Z,9.97
2018-08-30T12:06:02.698Z,11.37
2018-08-30T12:08:31.368Z,13.03
2018-08-30T12:11:00.450Z,9.80
2018-08-30T12:13:29.013Z,9.57
2018-08-30T12:15:57.656Z,10.30
2018-08-30T12:18:26.311Z,7.87
2018-08-30T12:20:54.956Z,7.60
2018-08-30T12:23:23.637Z,9.27
2018-08-30T12:25:52.878Z,11.97
2018-08-30T12:28:21.718Z,11.30
2018-08-30T12:30:50.459Z,13.13
2018-08-30T12:33:19.170Z,11.63
2018-08-30T12:35:47.886Z,11.30
2018-08-30T12:38:16.479Z,14.07
2018-08-30T12:40:45.095Z,11.07
2018-08-30T12:43:13.799Z,10.53
2018-08-30T12:45:42.473Z,12.23
2018-08-30T12:48:11.119Z,12.93
2018-08-30T12:50:39.902Z,8.37
2018-08-30T12:53:09.088Z,9.17
2018-08-30T12:55:37.694Z,11.03
2018-08-30T12:58:07.627Z,11.60
2018-08-30T13:00:36.594Z,14.37
2018-08-30T13:03:05.299Z,16.57
2018-08-30T13:05:34.163Z,13.03
2018-08-30T13:08:02.682Z,14.27
2018-08-30T13:10:31.372Z,13.63
2018-08-30T13:13:00.122Z,12.80
2018-08-30T13:15:29.145Z,13.03
2018-08-30T13:17:57.808Z,14.77
2018-08-30T13:20:26.537Z,11.23
2018-08-30T13:22:55.100Z,9.83
2018-08-30T13:25:23.833Z,8.70
2018-08-30T13:27:52.406Z,16.10
2018-08-30T13:30:23.519Z,16.03
2018-08-30T13:32:52.335Z,13.63
2018-08-30T13:35:20.955Z,15.90
2018-08-30T13:37:49.578Z,14.23
2018-08-30T13:40:18.532Z,12.73
2018-08-30T13:42:46.928Z,10.87
2018-08-30T13:45:15.766Z,10.63
2018-08-30T13:47:44.414Z,13.17
2018-08-30T13:50:13.304Z,12.77
2018-08-30T13:52:42.158Z,14.30
2018-08-30T13:55:10.532Z,13.50
2018-08-30T13:57:39.460Z,14.63
2018-08-30T14:00:08.261Z,11.47
2018-08-30T14:02:36.741Z,13.33
2018-08-30T14:05:05.446Z,8.93
2018-08-30T14:07:34.457Z,13.03
2018-08-30T14:10:03.416Z,13.20
2018-08-30T14:12:31.992Z,13.13
2018-08-30T14:15:00.650Z,12.20
2018-08-30T14:17:29.331Z,15.23
2018-08-30T14:19:58.015Z,10.90
2018-08-30T14:22:26.616Z,10.13
2018-08-30T14:24:55.231Z,9.27
2018-08-30T14:27:23.886Z,12.13
2018-08-30T14:29:52.647Z,13.30
2018-08-30T14:32:21.785Z,7.70
2018-08-30T14:34:50.637Z,10.97
2018-08-30T14:37:19.209Z,12.60
2018-08-30T14:39:47.899Z,10.70
2018-08-30T14:42:16.482Z,13.33
2018-08-30T14:44:45.093Z,13.40
2018-08-30T14:47:15.856Z,14.33
2018-08-30T14:49:44.514Z,9.10
2018-08-30T14:52:13.181Z,13.63
2018-08-30T14:54:41.912Z,15.20
2018-08-30T14:57:10.554Z,9.27
2018-08-30T14:59:39.205Z,11.13
2018-08-30T15:02:07.936Z,9.37
2018-08-30T15:04:36.560Z,11.97
2018-08-30T15:07:05.272Z,12.87
2018-08-30T15:09:34.189Z,10.07
2018-08-30T15:12:02.786Z,12.10
2018-08-30T15:14:31.628Z,8.53
2018-08-30T15:17:00.700Z,14.00
2018-08-30T15:19:29.359Z,12.07
2018-08-30T15:21:58.028Z,19.07
2018-08-30T15:24:26.690Z,11.93
2018-08-30T15:26:55.663Z,18.47
2018-08-30T15:29:24.325Z,11.77
2018-08-30T15:31:52.713Z,9.30
2018-08-30T15:34:21.424Z,7.87
2018-08-30T15:36:50.056Z,12.23
2018-08-30T15:39:18.772Z,11.37
2018-08-30T15:41:47.435Z,10.03
2018-08-30T15:44:16.129Z,8.40
2018-08-30T15:46:45.084Z,6.30
2018-08-30T15:49:13.773Z,8.30
2018-08-30T15:51:42.341Z,7.50
2018-08-30T15:54:11.007Z,10.27
2018-08-30T15:56:39.622Z,7.83
2018-08-30T15:59:08.330Z,7.77
2018-08-30T16:01:37.023Z,7.67
2018-08-30T16:04:05.859Z,6.30
2018-08-30T16:06:34.589Z,7.20
2018-08-30T16:09:03.358Z,6.43
2018-08-30T16:11:31.976Z,10.70
2018-08-30T16:14:00.652Z,12.90
2018-08-30T16:16:29.264Z,8.50
2018-08-30T16:18:57.951Z,10.00
2018-08-30T16:21:26.543Z,11.10
2018-08-30T16:23:55.201Z,8.70
2018-08-30T16:26:23.898Z,9.73
2018-08-30T16:28:52.550Z,8.40
2018-08-30T16:31:21.292Z,7.80
2018-08-30T16:33:49.831Z,6.80
2018-08-30T16:36:18.618Z,13.70
2018-08-30T16:38:47.175Z,10.27
2018-08-30T16:41:16.648Z,8.60
2018-08-30T16:43:45.213Z,6.47
2018-08-30T16:46:14.044Z,8.63
2018-08-30T16:48:42.727Z,8.07
2018-08-30T16:51:11.492Z,9.97
2018-08-30T16:53:40.153Z,9.00
2018-08-30T16:56:08.985Z,9.17
2018-08-30T16:58:37.864Z,11.60
2018-08-30T17:01:06.704Z,8.63
2018-08-30T17:03:35.377Z,9.83
2018-08-30T17:06:04.109Z,10.73
2018-08-30T17:08:32.819Z,8.87
2018-08-30T17:11:01.480Z,8.23
2018-08-30T17:13:30.248Z,9.23
2018-08-30T17:15:58.901Z,6.80
2018-08-30T17:18:27.601Z,9.03
2018-08-30T17:20:56.987Z,7.50
2018-08-30T17:23:25.710Z,8.37
2018-08-30T17:25:54.323Z,8.60
2018-08-30T17:28:22.977Z,9.60
2018-08-30T17:30:51.621Z,3.67
2018-08-30T17:33:20.332Z,8.77
2018-08-30T17:35:49.080Z,6.20
2018-08-30T17:38:17.826Z,9.13
2018-08-30T17:40:46.500Z,9.90
2018-08-30T17:43:15.182Z,7.07
2018-08-30T17:45:43.885Z,7.40
2018-08-30T17:48:12.572Z,12.23
2018-08-30T17:50:41.689Z,7.07
2018-08-30T17:53:10.435Z,7.00
2018-08-30T17:55:39.230Z,6.97
2018-08-30T17:58:08.084Z,11.93
2018-08-30T18:00:36.761Z,8.60
2018-08-30T18:03:05.495Z,10.60
2018-08-30T18:05:34.175Z,5.60
2018-08-30T18:08:02.895Z,11.47
2018-08-30T18:10:31.734Z,10.43
2018-08-30T18:13:00.345Z,8.90
2018-08-30T18:15:29.268Z,7.83
2018-08-30T18:17:57.937Z,10.93
2018-08-30T18:20:25.820Z,9.37
2018-08-30T18:22:54.454Z,7.43
2018-08-30T18:25:23.182Z,11.50
2018-08-30T18:27:51.857Z,15.40
2018-08-30T18:30:20.522Z,9.33
2018-08-30T18:32:49.212Z,11.63
2018-08-30T18:35:17.944Z,6.40
2018-08-30T18:37:46.609Z,9.50
2018-08-30T18:40:15.312Z,8.33
2018-08-30T18:42:43.990Z,5.83
2018-08-30T18:45:12.736Z,7.10
2018-08-30T18:47:41.445Z,11.07
2018-08-30T18:50:10.215Z,6.80
2018-08-30T18:52:39.075Z,8.83
2018-08-30T18:55:07.827Z,10.70
2018-08-30T18:57:36.502Z,8.67
2018-08-30T19:00:05.281Z,8.87
2018-08-30T19:02:33.964Z,9.97
2018-08-30T19:05:02.875Z,7.67
2018-08-30T19:07:32.251Z,7.20
2018-08-30T19:10:00.914Z,8.03
2018-08-30T19:12:29.622Z,8.60
2018-08-30T19:14:58.313Z,7.20
2018-08-30T19:17:32.313Z,6.10
2018-08-30T19:20:01.063Z,8.80
2018-08-30T19:22:29.774Z,11.13
2018-08-30T19:25:04.172Z,8.20
2018-08-30T19:27:32.996Z,11.77
2018-08-30T19:30:06.931Z,10.07
2018-08-30T19:32:35.903Z,10.07
2018-08-30T19:35:09.780Z,7.80
2018-08-30T19:37:38.485Z,7.80
2018-08-30T19:40:10.062Z,6.93
2018-08-30T19:42:38.810Z,9.90
2018-08-30T19:45:07.497Z,12.07
2018-08-30T19:47:36.785Z,9.07
2018-08-30T19:50:05.531Z,11.27
2018-08-30T19:52:34.331Z,10.50
2018-08-30T19:55:03.166Z,12.00
2018-08-30T19:57:31.927Z,14.43
2018-08-30T20:00:00.867Z,9.17
2018-08-30T20:02:29.643Z,11.40
2018-08-30T20:04:58.242Z,12.63
2018-08-30T20:07:27.196Z,15.17
2018-08-30T20:09:55.886Z,11.33
2018-08-30T20:12:24.934Z,6.83
2018-08-30T20:14:53.695Z,11.07
2018-08-30T20:17:22.837Z,12.57
2018-08-30T20:19:51.648Z,13.80
2018-08-30T20:22:20.413Z,9.07
2018-08-30T20:24:49.890Z,13.00
2018-08-30T20:27:18.728Z,9.10
2018-08-30T20:29:47.516Z,9.07
2018-08-30T20:32:16.165Z,10.00
2018-08-30T20:34:44.832Z,6.83
2018-08-30T20:37:13.483Z,10.20
2018-08-30T20:39:42.292Z,9.40
2018-08-30T20:42:11.078Z,8.13
2018-08-30T20:44:39.723Z,9.17
2018-08-30T20:47:08.950Z,7.40
2018-08-30T20:49:37.857Z,7.20
2018-08-30T20:52:06.853Z,11.30
2018-08-30T20:54:35.650Z,12.50
2018-08-30T20:57:04.665Z,9.37
2018-08-30T20:59:33.589Z,16.93
2018-08-30T21:02:02.403Z,14.63
2018-08-30T21:04:31.047Z,17.07
2018-08-30T21:06:59.777Z,16.80
2018-08-30T21:09:28.476Z,11.07
2018-08-30T21:11:57.305Z,17.97
2018-08-30T21:14:26.333Z,10.07
2018-08-30T21:16:54.955Z,12.10
2018-08-30T21:19:23.704Z,9.50
2018-08-30T21:21:52.580Z,9.33
2018-08-30T21:24:21.310Z,11.57
2018-08-30T21:26:49.914Z,11.17
2018-08-30T21:29:18.740Z,12.07
2018-08-30T21:31:47.408Z,9.40
2018-08-30T21:34:16.198Z,12.57
2018-08-30T21:36:44.912Z,9.83
2018-08-30T21:39:13.793Z,10.40
2018-08-30T21:41:42.595Z,10.93
2018-08-30T21:44:11.261Z,11.37
2018-08-30T21:46:40.100Z,9.87
2018-08-30T21:49:09.554Z,8.70
2018-08-30T21:51:38.263Z,8.37
2018-08-30T21:54:07.049Z,10.60
2018-08-30T21:56:35.774Z,9.87
2018-08-30T21:59:04.491Z,11.20
2018-08-30T22:01:33.467Z,10.93
2018-08-30T22:04:02.309Z,13.53
2018-08-30T22:06:31.054Z,9.23
2018-08-30T22:09:00.346Z,12.13
2018-08-30T22:11:28.947Z,10.93
2018-08-30T22:13:57.894Z,12.20
2018-08-30T22:16:26.814Z,9.87
2018-08-30T22:18:55.438Z,7.47
2018-08-30T22:21:24.066Z,8.93
2018-08-30T22:23:52.674Z,14.37
2018-08-30T22:26:21.406Z,13.23
2018-08-30T22:28:50.138Z,12.97
2018-08-30T22:31:18.771Z,9.03
2018-08-30T22:33:47.469Z,14.23
2018-08-30T22:36:16.583Z,12.40
2018-08-30T22:38:45.247Z,13.43
2018-08-30T22:41:13.932Z,13.07
2018-08-30T22:43:43.152Z,10.37
2018-08-30T22:46:11.777Z,11.20
2018-08-30T22:48:40.524Z,10.77
2018-08-30T22:51:09.340Z,9.13
2018-08-30T22:53:38.090Z,8.33
2018-08-30T22:56:06.771Z,10.63
2018-08-30T22:58:35.596Z,13.10
2018-08-30T23:01:04.348Z,10.10
2018-08-30T23:03:33.120Z,9.23
2018-08-30T23:06:01.899Z,9.97
2018-08-30T23:08:30.819Z,9.13
2018-08-30T23:10:59.833Z,13.67
2018-08-30T23:13:28.587Z,10.80
2018-08-30T23:15:57.314Z,13.00
2018-08-30T23:18:26.369Z,10.50
2018-08-30T23:20:55.095Z,9.33
2018-08-30T23:23:23.868Z,10.37
2018-08-30T23:25:52.625Z,12.50
2018-08-30T23:28:21.288Z,7.93
2018-08-30T23:30:49.924Z,12.07
2018-08-30T23:33:18.555Z,13.53
2018-08-30T23:35:47.279Z,10.30
2018-08-30T23:38:15.964Z,11.00
2018-08-30T23:40:44.783Z,12.50
2018-08-30T23:43:13.471Z,11.13
2018-08-30T23:45:42.187Z,12.67
2018-08-30T23:48:11.035Z,10.20
2018-08-30T23:50:40.221Z,8.47
2018-08-30T23:53:08.797Z,12.57
2018-08-30T23:55:37.430Z,9.23
2018-08-30T23:58:17.317Z,9.93
